createdAt,value
2019-05-19T00:01:00.883Z,13.90
2019-05-19T00:03:32.125Z,13.90
2019-05-19T00:06:03.672Z,13.90
2019-05-19T00:08:34.627Z,14.20
2019-05-19T00:11:06.327Z,14.50
2019-05-19T00:13:38.330Z,14.50
2019-05-19T00:16:10.209Z,14.40
2019-05-19T00:18:40.897Z,14.40
2019-05-19T00:21:12.169Z,14.50
2019-05-19T00:23:43.259Z,14.50
2019-05-19T00:26:14.473Z,14.40
2019-05-19T00:28:46.080Z,14.40
2019-05-19T00:31:17.406Z,14.40
2019-05-19T00:33:48.789Z,14.30
2019-05-19T00:36:20.665Z,14.10
2019-05-19T00:38:52.031Z,14.00
2019-05-19T00:41:23.700Z,14.00
2019-05-19T00:43:55.333Z,13.90
2019-05-19T00:46:27.030Z,13.90
2019-05-19T00:48:58.706Z,13.80
2019-05-19T00:51:30.654Z,13.80
2019-05-19T00:54:01.719Z,13.90
2019-05-19T00:56:34.422Z,13.90
2019-05-19T00:59:06.889Z,13.90
2019-05-19T01:01:38.457Z,13.90
2019-05-19T01:04:10.007Z,13.80
2019-05-19T01:06:40.978Z,14.10
2019-05-19T01:09:12.282Z,14.20
2019-05-19T01:11:43.847Z,14.00
2019-05-19T01:14:15.479Z,14.00
2019-05-19T01:16:46.729Z,14.10
2019-05-19T01:19:18.294Z,14.00
2019-05-19T01:21:49.389Z,13.90
2019-05-19T01:24:20.647Z,13.90
2019-05-19T01:26:51.982Z,13.90
2019-05-19T01:29:23.838Z,14.20
2019-05-19T01:31:55.252Z,14.40
2019-05-19T01:34:27.137Z,14.60
2019-05-19T01:36:58.354Z,14.40
2019-05-19T01:39:29.715Z,14.40
2019-05-19T02:01:03.568Z,14.00
2019-05-19T02:03:35.401Z,14.20
2019-05-19T02:06:06.582Z,14.20
2019-05-19T02:08:39.194Z,14.20
2019-05-19T02:11:10.264Z,14.00
2019-05-19T02:13:42.271Z,13.90
2019-05-19T02:16:13.770Z,13.80
2019-05-19T02:18:44.744Z,13.70
2019-05-19T02:21:17.228Z,13.70
2019-05-19T02:23:49.125Z,13.70
2019-05-19T03:23:32.112Z,13.60
2019-05-19T03:51:08.839Z,13.70
2019-05-19T03:53:40.274Z,13.60
2019-05-19T03:56:11.954Z,13.60
2019-05-19T03:58:44.026Z,13.70
2019-05-19T04:01:16.024Z,14.00
2019-05-19T04:03:47.120Z,13.90
2019-05-19T04:06:18.364Z,13.80
2019-05-19T04:08:50.071Z,13.80
2019-05-19T04:11:21.592Z,13.70
2019-05-19T04:13:53.560Z,13.50
2019-05-19T04:16:43.021Z,13.60
2019-05-19T04:49:22.862Z,13.70
2019-05-19T04:54:24.811Z,13.70
2019-05-19T04:56:56.259Z,13.70
2019-05-19T04:59:28.022Z,13.80
2019-05-19T05:02:00.385Z,13.80
2019-05-19T05:18:04.690Z,13.90
2019-05-19T05:25:53.045Z,14.00
2019-05-19T05:31:08.302Z,13.90
2019-05-19T05:33:39.857Z,14.00
2019-05-19T05:36:11.014Z,14.00
2019-05-19T05:38:42.303Z,14.00
2019-05-19T05:41:14.295Z,14.10
2019-05-19T05:43:46.201Z,14.20
2019-05-19T05:46:18.266Z,14.10
2019-05-19T05:48:49.583Z,14.10
2019-05-19T05:51:21.202Z,14.10
2019-05-19T05:53:52.564Z,14.10
2019-05-19T05:56:24.295Z,14.10
2019-05-19T05:58:56.173Z,14.20
2019-05-19T06:01:27.162Z,14.20
2019-05-19T06:03:58.148Z,14.10
2019-05-19T06:06:29.523Z,14.30
2019-05-19T06:09:01.201Z,14.20
2019-05-19T06:11:32.450Z,14.10
2019-05-19T06:14:04.339Z,14.10
2019-05-19T06:16:35.870Z,14.10
2019-05-19T06:19:07.454Z,14.10
2019-05-19T06:21:39.002Z,14.20
2019-05-19T06:24:10.861Z,14.10
2019-05-19T06:26:42.125Z,14.10
2019-05-19T06:29:13.498Z,14.10
2019-05-19T06:31:44.731Z,14.00
2019-05-19T06:34:15.435Z,14.10
2019-05-19T06:36:47.319Z,14.00
2019-05-19T06:39:19.139Z,14.10
2019-05-19T06:41:50.745Z,14.10
2019-05-19T06:44:22.018Z,14.10
2019-05-19T06:46:53.872Z,14.00
2019-05-19T06:49:24.806Z,14.00
2019-05-19T06:51:56.071Z,14.00
2019-05-19T06:54:27.376Z,14.10
2019-05-19T06:56:59.105Z,14.10
2019-05-19T06:59:30.183Z,14.10
2019-05-19T07:02:01.514Z,14.30
2019-05-19T07:04:32.789Z,14.30
2019-05-19T07:07:04.539Z,14.40
2019-05-19T07:09:36.611Z,14.50
2019-05-19T07:12:08.163Z,14.40
2019-05-19T07:14:40.041Z,14.50
2019-05-19T07:17:11.945Z,14.70
2019-05-19T07:19:42.916Z,15.10
2019-05-19T07:22:14.191Z,14.80
2019-05-19T07:24:46.086Z,14.90
2019-05-19T07:27:17.956Z,14.80
2019-05-19T07:29:49.955Z,14.90
2019-05-19T07:32:21.759Z,15.10
2019-05-19T07:34:53.513Z,15.30
2019-05-19T07:37:25.382Z,15.40
2019-05-19T07:39:57.047Z,15.50
2019-05-19T07:42:28.163Z,15.40
2019-05-19T07:44:59.772Z,15.20
2019-05-19T07:47:31.846Z,15.10
2019-05-19T07:50:04.100Z,15.20
2019-05-19T07:52:34.890Z,15.20
2019-05-19T07:55:06.375Z,15.60
2019-05-19T07:57:37.363Z,15.60
2019-05-19T08:00:09.512Z,15.80
2019-05-19T08:02:41.035Z,16.00
2019-05-19T08:05:12.260Z,16.00
2019-05-19T08:07:44.306Z,16.10
2019-05-19T08:10:16.062Z,15.90
2019-05-19T08:12:47.930Z,15.90
2019-05-19T08:15:20.735Z,15.80
2019-05-19T08:17:51.918Z,15.90
2019-05-19T08:20:23.074Z,16.20
2019-05-19T08:22:54.354Z,16.20
2019-05-19T08:25:25.652Z,16.40
2019-05-19T08:28:06.462Z,16.50
2019-05-19T08:30:30.217Z,16.70
2019-05-19T08:33:01.308Z,16.70
2019-05-19T08:35:33.273Z,16.70
2019-05-19T08:38:04.921Z,16.80
2019-05-19T08:40:36.529Z,17.20
2019-05-19T08:43:08.264Z,16.80
2019-05-19T08:45:39.582Z,16.60
2019-05-19T08:48:10.978Z,16.60
2019-05-19T08:50:41.818Z,16.70
2019-05-19T08:53:13.831Z,16.80
2019-05-19T08:55:45.565Z,17.00
2019-05-19T08:58:17.384Z,17.10
2019-05-19T09:00:48.349Z,17.10
2019-05-19T09:03:21.665Z,17.10
2019-05-19T09:05:52.990Z,17.30
2019-05-19T09:08:24.733Z,17.20
2019-05-19T09:10:56.496Z,17.20
2019-05-19T09:13:28.448Z,17.20
2019-05-19T09:15:59.933Z,17.60
2019-05-19T09:18:31.248Z,17.40
2019-05-19T09:21:02.734Z,17.50
2019-05-19T09:23:35.067Z,17.60
2019-05-19T09:26:07.005Z,17.70
2019-05-19T09:28:38.208Z,17.90
2019-05-19T09:31:09.929Z,17.90
2019-05-19T09:33:41.973Z,18.00
2019-05-19T09:36:13.546Z,17.90
2019-05-19T09:38:45.317Z,17.80
2019-05-19T09:41:17.215Z,17.90
2019-05-19T09:43:48.937Z,18.30
2019-05-19T09:46:20.649Z,18.20
2019-05-19T09:49:11.158Z,18.20
2019-05-19T09:51:42.543Z,18.30
2019-05-19T09:54:13.974Z,18.80
2019-05-19T09:56:45.698Z,19.00
2019-05-19T09:59:17.056Z,19.00
2019-05-19T10:01:48.685Z,19.00
2019-05-19T10:04:20.025Z,19.10
2019-05-19T10:06:52.380Z,19.50
2019-05-19T10:09:43.370Z,19.50
2019-05-19T10:12:15.267Z,19.40
2019-05-19T10:14:46.928Z,19.30
2019-05-19T10:17:18.656Z,19.50
2019-05-19T10:19:50.250Z,19.50
2019-05-19T10:22:21.427Z,19.60
2019-05-19T10:25:04.471Z,19.60
2019-05-19T10:27:26.467Z,19.80
2019-05-19T10:29:58.257Z,19.70
2019-05-19T10:32:29.818Z,19.90
2019-05-19T10:35:01.728Z,20.10
2019-05-19T10:37:33.431Z,20.00
2019-05-19T10:40:05.830Z,20.20
2019-05-19T10:42:37.871Z,20.40
2019-05-19T10:45:10.037Z,21.10
2019-05-19T10:47:41.599Z,21.20
2019-05-19T10:50:13.626Z,21.50
2019-05-19T10:52:45.545Z,21.40
2019-05-19T10:55:17.631Z,21.30
2019-05-19T10:57:48.959Z,21.50
2019-05-19T11:00:20.442Z,21.80
2019-05-19T11:02:51.818Z,22.00
2019-05-19T11:05:23.370Z,22.10
2019-05-19T11:07:54.363Z,22.60
2019-05-19T11:10:26.264Z,23.10
2019-05-19T11:12:57.564Z,22.90
2019-05-19T11:15:29.403Z,22.90
2019-05-19T11:18:00.424Z,23.20
2019-05-19T11:20:31.763Z,23.70
2019-05-19T11:23:02.922Z,24.20
2019-05-19T11:25:34.571Z,25.10
2019-05-19T11:28:05.931Z,25.40
2019-05-19T11:30:37.970Z,25.50
2019-05-19T11:33:09.531Z,25.30
2019-05-19T11:35:43.959Z,24.40
2019-05-19T11:38:15.836Z,24.20
2019-05-19T11:40:47.482Z,23.80
2019-05-19T11:43:19.077Z,24.20
2019-05-19T11:45:50.963Z,23.90
2019-05-19T11:48:22.229Z,24.60
2019-05-19T11:50:53.964Z,24.30
2019-05-19T11:53:25.629Z,24.50
2019-05-19T11:56:06.150Z,24.60
2019-05-19T11:58:31.110Z,25.20
2019-05-19T12:01:03.115Z,25.50
2019-05-19T12:03:35.248Z,26.00
2019-05-19T12:06:06.896Z,25.50
2019-05-19T12:08:38.592Z,25.10
2019-05-19T12:11:09.611Z,25.30
2019-05-19T12:13:41.236Z,25.80
2019-05-19T12:16:13.118Z,26.00
2019-05-19T12:18:45.435Z,26.60
2019-05-19T12:21:17.275Z,26.20
2019-05-19T12:23:49.216Z,26.60
2019-05-19T12:26:23.581Z,26.90
2019-05-19T12:28:53.852Z,26.90
2019-05-19T12:31:25.159Z,26.70
2019-05-19T12:33:56.958Z,27.10
2019-05-19T12:36:28.716Z,27.00
2019-05-19T12:39:00.063Z,26.70
2019-05-19T12:41:31.856Z,27.30
2019-05-19T12:44:03.903Z,26.70
2019-05-19T12:46:35.505Z,26.90
2019-05-19T12:49:07.180Z,26.40
2019-05-19T12:51:38.990Z,26.10
2019-05-19T12:54:10.656Z,25.90
2019-05-19T12:56:41.679Z,26.20
2019-05-19T12:59:13.270Z,26.20
2019-05-19T13:01:44.186Z,26.50
2019-05-19T13:04:15.528Z,26.80
2019-05-19T13:06:46.825Z,26.70
2019-05-19T13:09:18.575Z,26.40
2019-05-19T13:11:50.181Z,26.00
2019-05-19T13:14:21.480Z,25.60
2019-05-19T13:16:53.044Z,25.80
2019-05-19T13:19:25.017Z,26.30
2019-05-19T13:21:56.791Z,26.70
2019-05-19T13:24:28.326Z,26.70
2019-05-19T13:26:59.361Z,26.90
2019-05-19T13:29:31.060Z,27.20
2019-05-19T13:32:02.524Z,27.20
2019-05-19T13:34:34.122Z,27.10
2019-05-19T13:37:05.457Z,27.00
2019-05-19T13:39:37.646Z,27.80
2019-05-19T13:42:08.913Z,28.20
2019-05-19T13:44:40.170Z,27.90
2019-05-19T13:47:11.567Z,27.90
2019-05-19T13:49:42.845Z,28.00
2019-05-19T13:52:14.317Z,28.30
2019-05-19T13:54:46.007Z,28.20
2019-05-19T13:57:18.151Z,27.80
2019-05-19T13:59:49.531Z,27.80
2019-05-19T14:02:21.247Z,27.30
2019-05-19T14:04:52.228Z,27.70
2019-05-19T14:07:22.936Z,27.80
2019-05-19T14:09:54.293Z,28.00
2019-05-19T14:12:25.703Z,28.30
2019-05-19T14:14:57.167Z,28.10
2019-05-19T14:17:28.815Z,28.20
2019-05-19T14:20:01.089Z,28.60
2019-05-19T14:22:32.830Z,28.40
2019-05-19T14:25:04.266Z,28.80
2019-05-19T14:27:36.169Z,28.60
2019-05-19T14:30:08.265Z,28.90
2019-05-19T14:32:39.587Z,28.90
2019-05-19T14:35:11.439Z,29.10
2019-05-19T14:37:42.783Z,29.10
2019-05-19T14:40:14.177Z,29.40
2019-05-19T14:42:56.062Z,29.00
2019-05-19T14:45:27.379Z,29.20
2019-05-19T14:47:59.029Z,28.90
2019-05-19T14:50:30.340Z,29.10
2019-05-19T14:53:01.283Z,29.50
2019-05-19T14:55:33.043Z,29.40
2019-05-19T14:58:04.083Z,29.40
2019-05-19T15:00:35.435Z,29.50
2019-05-19T15:03:07.046Z,29.70
2019-05-19T15:05:38.451Z,29.50
2019-05-19T15:08:10.126Z,29.40
2019-05-19T15:10:41.799Z,29.40
2019-05-19T15:13:13.769Z,30.00
2019-05-19T15:15:44.810Z,29.70
2019-05-19T15:18:15.844Z,29.80
2019-05-19T15:20:47.567Z,29.80
2019-05-19T15:23:18.777Z,28.90
2019-05-19T15:25:50.461Z,28.40
2019-05-19T15:28:22.506Z,28.30
2019-05-19T15:30:54.470Z,28.00
2019-05-19T15:33:26.293Z,27.60
2019-05-19T15:35:57.297Z,26.90
2019-05-19T15:38:28.663Z,26.80
2019-05-19T15:41:00.211Z,26.70
2019-05-19T15:43:32.117Z,26.80
2019-05-19T15:46:03.840Z,27.20
2019-05-19T15:48:35.177Z,27.70
2019-05-19T15:51:07.239Z,28.10
2019-05-19T15:53:39.123Z,28.20
2019-05-19T15:56:10.995Z,28.10
2019-05-19T15:58:42.865Z,28.00
2019-05-19T16:01:14.408Z,27.60
2019-05-19T16:03:45.898Z,27.50
2019-05-19T16:06:17.636Z,27.10
2019-05-19T16:08:49.278Z,26.40
2019-05-19T16:11:21.211Z,26.30
2019-05-19T16:13:53.151Z,25.90
2019-05-19T16:16:25.338Z,25.70
2019-05-19T16:18:56.927Z,25.70
2019-05-19T16:21:28.944Z,25.40
2019-05-19T16:24:00.399Z,25.10
2019-05-19T16:26:32.394Z,25.10
2019-05-19T16:29:03.732Z,24.60
2019-05-19T16:31:34.887Z,24.60
2019-05-19T16:34:06.239Z,24.40
2019-05-19T16:36:37.938Z,24.30
2019-05-19T16:39:09.417Z,23.90
2019-05-19T16:41:41.147Z,23.90
2019-05-19T16:44:12.491Z,23.80
2019-05-19T16:46:43.933Z,23.60
2019-05-19T16:49:16.027Z,23.60
2019-05-19T16:51:47.494Z,23.30
2019-05-19T16:54:24.281Z,23.40
2019-05-19T16:56:55.902Z,23.40
2019-05-19T16:59:27.679Z,23.40
2019-05-19T17:01:58.749Z,23.50
2019-05-19T17:04:30.886Z,23.60
2019-05-19T17:07:03.186Z,23.40
2019-05-19T17:09:34.669Z,23.60
2019-05-19T17:12:06.955Z,23.70
2019-05-19T17:14:38.777Z,23.70
2019-05-19T17:17:11.136Z,23.40
2019-05-19T17:19:42.761Z,23.20
2019-05-19T17:22:14.571Z,23.00
2019-05-19T17:24:46.707Z,22.90
2019-05-19T17:27:19.450Z,22.50
2019-05-19T17:29:50.706Z,22.30
2019-05-19T17:32:22.962Z,22.20
2019-05-19T17:34:54.566Z,22.20
2019-05-19T17:37:28.713Z,22.00
2019-05-19T17:40:00.611Z,21.90
2019-05-19T17:42:37.414Z,21.90
2019-05-19T17:45:10.449Z,22.10
2019-05-19T17:47:43.080Z,22.00
2019-05-19T17:50:19.307Z,21.90
2019-05-19T17:52:53.847Z,22.00
2019-05-19T17:55:25.804Z,21.80
2019-05-19T17:57:58.061Z,21.80
2019-05-19T18:00:40.777Z,21.70
2019-05-19T18:03:15.713Z,21.70
2019-05-19T18:05:47.469Z,21.70
2019-05-19T18:08:19.090Z,21.70
2019-05-19T18:10:52.904Z,21.50
2019-05-19T18:13:24.101Z,21.60
2019-05-19T18:15:55.614Z,21.50
2019-05-19T18:18:27.563Z,21.40
2019-05-19T18:20:58.949Z,21.20
2019-05-19T18:23:30.621Z,21.30
2019-05-19T18:26:01.639Z,21.30
2019-05-19T18:28:32.998Z,21.30
2019-05-19T18:31:04.832Z,21.20
2019-05-19T18:33:36.672Z,21.20
2019-05-19T18:36:08.093Z,21.10
2019-05-19T18:38:40.033Z,21.00
2019-05-19T18:41:11.110Z,21.00
2019-05-19T18:43:42.952Z,20.80
2019-05-19T18:46:15.323Z,20.90
2019-05-19T18:48:47.035Z,20.90
2019-05-19T18:51:18.773Z,20.60
2019-05-19T18:53:49.530Z,20.40
2019-05-19T18:56:20.606Z,20.30
2019-05-19T18:58:52.254Z,20.10
2019-05-19T19:01:24.478Z,20.00
2019-05-19T19:03:58.629Z,19.90
2019-05-19T19:06:37.164Z,19.90
2019-05-19T19:09:10.624Z,20.00
2019-05-19T19:11:43.371Z,19.90
2019-05-19T19:14:15.109Z,19.90
2019-05-19T19:16:46.706Z,19.80
2019-05-19T19:19:18.028Z,19.80
2019-05-19T19:21:49.868Z,19.80
2019-05-19T19:24:21.281Z,19.70
2019-05-19T19:26:52.984Z,19.60
2019-05-19T19:29:25.260Z,19.70
2019-05-19T19:31:57.097Z,19.50
2019-05-19T19:34:28.986Z,19.50
2019-05-19T19:37:01.439Z,19.50
2019-05-19T19:39:32.849Z,19.50
2019-05-19T19:42:04.508Z,19.40
2019-05-19T19:44:35.948Z,19.50
2019-05-19T19:47:07.762Z,19.40
2019-05-19T19:49:40.688Z,19.40
2019-05-19T19:52:12.673Z,19.30
2019-05-19T19:54:44.318Z,19.30
2019-05-19T19:57:16.159Z,19.30
2019-05-19T19:59:48.402Z,19.20
2019-05-19T20:02:20.595Z,19.20
2019-05-19T20:04:52.271Z,19.20
2019-05-19T20:07:23.973Z,19.30
2019-05-19T20:09:54.952Z,19.50
2019-05-19T20:12:26.828Z,19.20
2019-05-19T20:14:58.361Z,19.00
2019-05-19T20:17:29.666Z,19.00
2019-05-19T20:20:01.989Z,18.90
2019-05-19T20:22:32.916Z,18.80
2019-05-19T20:25:05.045Z,18.80
2019-05-19T20:27:36.662Z,18.80
2019-05-19T20:30:08.782Z,18.80
2019-05-19T20:32:40.597Z,18.80
2019-05-19T20:35:12.241Z,18.80
2019-05-19T20:37:43.703Z,18.70
2019-05-19T20:40:15.314Z,18.60
2019-05-19T20:42:47.684Z,18.50
2019-05-19T20:45:19.253Z,18.50
2019-05-19T20:47:50.683Z,18.50
2019-05-19T20:50:22.194Z,18.40
2019-05-19T20:52:53.686Z,18.30
2019-05-19T20:55:25.143Z,18.30
2019-05-19T20:57:56.763Z,18.30
2019-05-19T21:00:28.686Z,18.30
2019-05-19T21:02:59.982Z,18.20
2019-05-19T21:05:31.920Z,18.10
2019-05-19T21:08:03.439Z,18.00
2019-05-19T21:10:34.256Z,18.00
2019-05-19T21:13:05.306Z,18.00
2019-05-19T21:15:36.775Z,18.10
2019-05-19T21:18:08.166Z,18.00
2019-05-19T21:20:40.219Z,17.90
2019-05-19T21:23:11.489Z,17.80
2019-05-19T21:25:43.330Z,17.70
2019-05-19T21:28:14.300Z,17.70
2019-05-19T21:30:45.593Z,17.80
2019-05-19T21:33:17.720Z,17.70
2019-05-19T21:35:49.410Z,17.70
2019-05-19T21:38:21.191Z,17.60
2019-05-19T21:40:52.757Z,17.70
2019-05-19T21:43:24.358Z,17.60
2019-05-19T21:45:56.207Z,17.60
2019-05-19T21:48:37.492Z,17.70
2019-05-19T21:51:08.274Z,17.60
2019-05-19T21:53:40.330Z,17.70
2019-05-19T21:56:11.965Z,17.60
2019-05-19T21:58:42.834Z,17.60
2019-05-19T22:01:22.641Z,17.60
2019-05-19T22:03:47.785Z,17.50
2019-05-19T22:06:21.332Z,17.40
2019-05-19T22:08:52.688Z,17.30
2019-05-19T22:11:24.227Z,17.20
2019-05-19T22:13:56.190Z,17.30
2019-05-19T22:16:28.177Z,17.20
2019-05-19T22:19:00.079Z,17.20
2019-05-19T22:21:31.554Z,17.00
2019-05-19T22:24:03.572Z,17.10
2019-05-19T22:26:35.358Z,17.10
2019-05-19T22:29:06.959Z,17.10
2019-05-19T22:31:38.629Z,17.20
2019-05-19T22:34:09.558Z,17.00
2019-05-19T22:36:41.096Z,17.00
2019-05-19T22:39:12.079Z,16.90
2019-05-19T22:41:43.938Z,16.90
2019-05-19T22:44:15.991Z,16.80
2019-05-19T22:46:46.729Z,16.90
2019-05-19T22:49:17.985Z,16.90
2019-05-19T22:51:49.384Z,16.90
2019-05-19T22:54:20.600Z,16.90
2019-05-19T22:56:51.932Z,16.80
2019-05-19T22:59:23.207Z,16.80
2019-05-19T23:01:54.760Z,16.70
2019-05-19T23:04:26.606Z,16.70
2019-05-19T23:06:57.949Z,16.70
2019-05-19T23:09:29.941Z,16.70
2019-05-19T23:12:01.498Z,16.70
2019-05-19T23:14:32.194Z,16.70
2019-05-19T23:17:04.201Z,16.60
2019-05-19T23:19:35.461Z,16.70
2019-05-19T23:22:07.088Z,16.70
2019-05-19T23:24:37.801Z,16.70
2019-05-19T23:27:09.651Z,16.70
2019-05-19T23:29:41.226Z,16.70
2019-05-19T23:32:12.770Z,16.70
2019-05-19T23:34:44.463Z,16.70
2019-05-19T23:37:16.072Z,16.70
2019-05-19T23:39:48.371Z,16.60
2019-05-19T23:42:19.377Z,16.60
2019-05-19T23:44:50.687Z,16.50
2019-05-19T23:47:22.303Z,16.50
2019-05-19T23:49:53.362Z,16.50
2019-05-19T23:52:24.643Z,16.40
2019-05-19T23:54:56.201Z,16.40
2019-05-19T23:57:28.061Z,16.30
2019-05-19T23:59:59.342Z,16.30
